| time (UTC) | temp C | wind direction | speed KPH | gust KPH | rain 1hr cm | rain 24hr cm | rain mn cm | humidity % | barometer mb |
| 20260903073528 | 16 | 285 | 3.2 | 6.4 | 0.00 | 0.00 | 0.00 | 80 | 1023.1 |
| 20260903072528 | 15 | 233 | 4.8 | 6.4 | 0.00 | 0.00 | 0.00 | 82 | 1023.4 |
| 20260903071142 | 15 | 241 | 6.4 | 9.7 | 0.00 | 0.00 | 0.00 | 83 | 1023.5 |
| 20260903070529 | 15 | 248 | 6.4 | 11.3 | 0.00 | 0.00 | 0.00 | 84 | 1023.5 |
| 20260903065529 | 15 | 232 | 6.4 | 8.0 | 0.00 | 0.00 | 0.00 | 85 | 1023.4 |
| 20260903064141 | 15 | 224 | 6.4 | 9.7 | 0.00 | 0.00 | 0.00 | 84 | 1023.6 |
| 20260903063528 | 15 | 225 | 4.8 | 6.4 | 0.00 | 0.00 | 0.00 | 87 | 1023.4 |
| 20260903062529 | 15 | 239 | 4.8 | 8.0 | 0.00 | 0.00 | 0.00 | 86 | 1023.6 |
| 20260903061142 | 14 | 261 | 3.2 | 6.4 | 0.00 | 0.00 | 0.00 | 91 | 1023.7 |
| 20260903060529 | 13 | 221 | 1.6 | 3.2 | 0.00 | 0.00 | 0.00 | 91 | 1023.7 |
| 20260903055528 | 13 | 243 | 3.2 | 6.4 | 0.00 | 0.00 | 0.00 | 92 | 1023.7 |
| 20260903054141 | 13 | 254 | 3.2 | 4.8 | 0.00 | 0.00 | 0.00 | 93 | 1023.7 |
| 20260903053529 | 13 | 298 | 3.2 | 4.8 | 0.00 | 0.00 | 0.00 | 92 | 1023.7 |
| 20260903052529 | 13 | 229 | 1.6 | 3.2 | 0.00 | 0.00 | 0.00 | 92 | 1023.6 |
| 20260903051142 | 13 | 199 | 4.8 | 6.4 | 0.00 | 0.00 | 0.00 | 92 | 1023.5 |
| 20260903050528 | 13 | 211 | 1.6 | 3.2 | 0.00 | 0.00 | 0.00 | 93 | 1023.5 |
| 20260903045529 | 13 | 293 | 3.2 | 4.8 | 0.00 | 0.00 | 0.00 | 91 | 1023.4 |
| 20260903044141 | 13 | 254 | 1.6 | 4.8 | 0.00 | 0.00 | 0.00 | 92 | 1023.3 |
| 20260903043528 | 13 | 196 | 3.2 | 3.2 | 0.00 | 0.00 | 0.00 | 91 | 1023.4 |
| 20260903042529 | 13 | 159 | 1.6 | 6.4 | 0.00 | 0.00 | 0.00 | 91 | 1023.4 |
| 20260903041141 | 13 | 271 | 4.8 | 6.4 | 0.00 | 0.00 | 0.00 | 91 | 1023.3 |
| 20260903040529 | 13 | 272 | 3.2 | 6.4 | 0.00 | 0.00 | 0.00 | 91 | 1023.3 |
| 20260903035529 | 13 | 196 | 3.2 | 4.8 | 0.00 | 0.00 | 0.00 | 92 | 1023.4 |
| 20260903034528 | 13 | 276 | 1.6 | 4.8 | 0.00 | 0.00 | 0.00 | 92 | 1023.3 |
| 20260903033528 | 13 | 254 | 1.6 | 6.4 | 0.00 | 0.00 | 0.00 | 93 | 1023.4 |
| 20260903032529 | 13 | 211 | 1.6 | 4.8 | 0.00 | 0.00 | 0.00 | 92 | 1023.4 |
| 20260903031142 | 13 | 346 | 1.6 | 3.2 | 0.00 | 0.00 | 0.00 | 92 | 1023.4 |
| 20260903030529 | 13 | 208 | 1.6 | 4.8 | 0.00 | 0.00 | 0.00 | 93 | 1023.3 |
| 20260903025529 | 13 | 178 | 4.8 | 6.4 | 0.00 | 0.00 | 0.00 | 94 | 1023.3 |
| 20260903024529 | 13 | 262 | 0.0 | 4.8 | 0.00 | 0.00 | 0.00 | 93 | 1023.3 |
| 20260903023529 | 13 | 287 | 4.8 | 6.4 | 0.00 | 0.00 | 0.00 | 93 | 1023.1 |
| 20260903022529 | 13 | 242 | 3.2 | 4.8 | 0.00 | 0.00 | 0.00 | 93 | 1023.2 |
| 20260903021141 | 13 | 165 | 4.8 | 6.4 | 0.00 | 0.00 | 0.00 | 94 | 1023.1 |
| 20260903020529 | 13 | 307 | 1.6 | 3.2 | 0.00 | 0.00 | 0.00 | 92 | 1023.0 |
| 20260903015529 | 13 | 226 | 1.6 | 3.2 | 0.00 | 0.00 | 0.00 | 92 | 1023.0 |
| 20260903014141 | 13 | 196 | 1.6 | 3.2 | 0.00 | 0.00 | 0.00 | 93 | 1023.1 |
| 20260903013528 | 14 | 214 | 1.6 | 3.2 | 0.00 | 0.00 | 0.00 | 93 | 1022.9 |
| 20260903012528 | 14 | 263 | 3.2 | 3.2 | 0.00 | 0.00 | 0.00 | 92 | 1022.9 |
| 20260903011142 | 14 | 297 | 3.2 | 6.4 | 0.00 | 0.00 | 0.00 | 89 | 1022.8 |
| 20260903010529 | 14 | 188 | 1.6 | 3.2 | 0.00 | 0.00 | 0.00 | 89 | 1022.8 |
| 20260903005529 | 14 | 108 | 1.6 | 3.2 | 0.00 | 0.00 | 0.00 | 88 | 1022.8 |
| 20260903004142 | 15 | 82 | 1.6 | 3.2 | 0.00 | 0.00 | 0.00 | 83 | 1022.7 |
| 20260903003529 | 15 | 64 | 3.2 | 3.2 | 0.00 | 0.00 | 0.00 | 83 | 1022.4 |
| 20260903002529 | 14 | 69 | 1.6 | 3.2 | 0.00 | 0.00 | 0.00 | 89 | 1022.8 |
| 20260903001541 | 15 | 167 | 0.0 | 3.2 | 0.00 | 0.00 | 0.00 | 89 | 1022.8 |
| 20260903000528 | 14 | 200 | 1.6 | 1.6 | 0.00 | 0.00 | 0.00 | 90 | 1022.6 |
| 20260902235528 | 14 | 257 | 0.0 | 3.2 | 0.00 | 0.00 | 0.00 | 90 | 1022.8 |
| 20260902234142 | 14 | 285 | 3.2 | 4.8 | 0.00 | 0.00 | 0.00 | 92 | 1022.8 |
| 20260902233528 | 14 | 204 | 3.2 | 4.8 | 0.00 | 0.00 | 0.00 | 91 | 1023.0 |
| 20260902232528 | 14 | 174 | 0.0 | 3.2 | 0.00 | 0.00 | 0.00 | 89 | 1022.8 |
| 20260902231529 | 14 | 18 | 1.6 | 3.2 | 0.00 | 0.00 | 0.00 | 91 | 1022.6 |
| 20260902230528 | 14 | 360 | 0.0 | 3.2 | 0.00 | 0.00 | 0.00 | 89 | 1022.6 |
| 20260902225529 | 14 | 198 | 1.6 | 4.8 | 0.00 | 0.00 | 0.00 | 91 | 1022.6 |
| 20260902224142 | 15 | 27 | 0.0 | 3.2 | 0.00 | 0.00 | 0.00 | 88 | 1022.4 |
| 20260902223529 | 15 | 330 | 1.6 | 3.2 | 0.00 | 0.00 | 0.00 | 87 | 1022.4 |
| 20260902222529 | 15 | 277 | 1.6 | 3.2 | 0.00 | 0.00 | 0.00 | 85 | 1022.1 |
| 20260902221142 | 15 | 160 | 3.2 | 4.8 | 0.00 | 0.00 | 0.00 | 85 | 1022.1 |
| 20260902220528 | 15 | 28 | 0.0 | 4.8 | 0.00 | 0.00 | 0.00 | 85 | 1021.9 |
| 20260902215528 | 16 | 260 | 1.6 | 3.2 | 0.00 | 0.00 | 0.00 | 81 | 1021.7 |
| 20260902214142 | 15 | 189 | 1.6 | 3.2 | 0.00 | 0.00 | 0.00 | 85 | 1021.8 |
| 20260902213528 | 16 | 127 | 1.6 | 3.2 | 0.00 | 0.00 | 0.00 | 84 | 1021.6 |
| 20260902211142 | 16 | 232 | 3.2 | 8.0 | 0.00 | 0.00 | 0.00 | 84 | 1021.6 |
| 20260902210529 | 16 | 297 | 4.8 | 6.4 | 0.00 | 0.00 | 0.00 | 78 | 1021.4 |
| 20260902205529 | 16 | 186 | 3.2 | 4.8 | 0.00 | 0.00 | 0.00 | 81 | 1021.4 |
| 20260902204143 | 16 | 341 | 3.2 | 9.7 | 0.00 | 0.00 | 0.00 | 81 | 1021.2 |
| 20260902203528 | 16 | 253 | 3.2 | 8.0 | 0.00 | 0.00 | 0.00 | 84 | 1021.3 |
| 20260902202529 | 16 | 120 | 4.8 | 8.0 | 0.00 | 0.00 | 0.00 | 80 | 1021.1 |
| 20260902201142 | 17 | 132 | 3.2 | 6.4 | 0.00 | 0.00 | 0.00 | 76 | 1021.1 |
| 20260902200529 | 16 | 180 | 1.6 | 4.8 | 0.00 | 0.00 | 0.00 | 80 | 1021.2 |
| 20260902195529 | 16 | 342 | 1.6 | 4.8 | 0.00 | 0.00 | 0.00 | 82 | 1021.1 |
| 20260902194142 | 17 | 274 | 3.2 | 6.4 | 0.00 | 0.00 | 0.00 | 78 | 1020.9 |
| 20260902193529 | 16 | 185 | 1.6 | 6.4 | 0.00 | 0.00 | 0.00 | 82 | 1021.0 |
| 20260902192528 | 17 | 240 | 1.6 | 4.8 | 0.00 | 0.00 | 0.00 | 79 | 1020.6 |
| 20260902191142 | 16 | 195 | 3.2 | 6.4 | 0.00 | 0.00 | 0.00 | 79 | 1020.6 |
| 20260902190528 | 18 | 216 | 3.2 | 4.8 | 0.00 | 0.00 | 0.00 | 69 | 1019.9 |
| 20260902185529 | 18 | 167 | 1.6 | 4.8 | 0.00 | 0.00 | 0.00 | 71 | 1019.9 |
| 20260902184142 | 18 | 220 | 3.2 | 8.0 | 0.00 | 0.00 | 0.00 | 74 | 1019.8 |
| 20260902183529 | 18 | 155 | 3.2 | 6.4 | 0.00 | 0.00 | 0.00 | 67 | 1019.3 |
| 20260902182529 | 19 | 261 | 3.2 | 6.4 | 0.00 | 0.00 | 0.00 | 62 | 1018.7 |
| 20260902181142 | 18 | 185 | 1.6 | 8.0 | 0.00 | 0.00 | 0.00 | 75 | 1018.9 |
| 20260902180529 | 18 | 197 | 4.8 | 8.0 | 0.00 | 0.00 | 0.00 | 72 | 1018.5 |
| 20260902175529 | 19 | 229 | 6.4 | 9.7 | 0.00 | 0.00 | 0.00 | 73 | 1018.3 |
| 20260902174142 | 20 | 313 | 3.2 | 6.4 | 0.00 | 0.00 | 0.00 | 72 | 1017.9 |
| 20260902173528 | 19 | 204 | 3.2 | 6.4 | 0.00 | 0.00 | 0.00 | 75 | 1017.8 |
| 20260902172529 | 20 | 188 | 3.2 | 8.0 | 0.00 | 0.00 | 0.00 | 71 | 1017.4 |
| 20260902171142 | 20 | 269 | 4.8 | 8.0 | 0.00 | 0.00 | 0.00 | 70 | 1017.3 |
| 20260902170529 | 21 | 281 | 4.8 | 6.4 | 0.00 | 0.00 | 0.00 | 60 | 1016.9 |
| 20260902165529 | 22 | 294 | 4.8 | 9.7 | 0.00 | 0.00 | 0.00 | 56 | 1016.5 |
| 20260902164142 | 22 | 225 | 4.8 | 9.7 | 0.00 | 0.00 | 0.00 | 63 | 1016.5 |
| 20260902163529 | 22 | 242 | 8.0 | 12.9 | 0.00 | 0.00 | 0.00 | 54 | 1016.5 |
| 20260902162529 | 22 | 274 | 11.3 | 14.5 | 0.00 | 0.00 | 0.00 | 56 | 1016.4 |
| 20260902161142 | 23 | 300 | 9.7 | 14.5 | 0.00 | 0.00 | 0.00 | 56 | 1016.2 |
| 20260902160528 | 24 | 317 | 4.8 | 12.9 | 0.00 | 0.00 | 0.00 | 50 | 1015.8 |
| 20260902155529 | 25 | 6 | 11.3 | 16.1 | 0.00 | 0.00 | 0.00 | 36 | 1015.8 |
| 20260902154142 | 25 | 25 | 8.0 | 16.1 | 0.00 | 0.00 | 0.00 | 36 | 1015.7 |
| 20260902153529 | 25 | 14 | 11.3 | 19.3 | 0.00 | 0.00 | 0.00 | 36 | 1015.8 |
| 20260902152528 | 25 | 360 | 12.9 | 20.9 | 0.00 | 0.00 | 0.00 | 36 | 1015.7 |
| 20260902151142 | 25 | 15 | 14.5 | 25.7 | 0.00 | 0.00 | 0.00 | 37 | 1015.7 |
| 20260902150529 | 25 | 4 | 14.5 | 24.1 | 0.00 | 0.00 | 0.00 | 33 | 1016.1 |
| 20260902145529 | 25 | 16 | 12.9 | 19.3 | 0.00 | 0.00 | 0.00 | 35 | 1015.8 |
| 20260902144142 | 25 | 28 | 14.5 | 24.1 | 0.00 | 0.00 | 0.00 | 37 | 1015.8 |
| 20260902143528 | 25 | 20 | 12.9 | 22.5 | 0.00 | 0.00 | 0.00 | 38 | 1015.8 |
| 20260902142529 | 25 | 13 | 16.1 | 22.5 | 0.00 | 0.00 | 0.00 | 39 | 1015.8 |
| 20260902141142 | 25 | 9 | 14.5 | 20.9 | 0.00 | 0.00 | 0.00 | 37 | 1016.0 |
| 20260902140529 | 25 | 5 | 12.9 | 19.3 | 0.00 | 0.00 | 0.00 | 38 | 1016.1 |
| 20260902135529 | 25 | 10 | 14.5 | 19.3 | 0.00 | 0.00 | 0.00 | 41 | 1016.1 |
| 20260902134141 | 25 | 9 | 14.5 | 19.3 | 0.00 | 0.00 | 0.00 | 39 | 1016.2 |
| 20260902133529 | 25 | 13 | 16.1 | 24.1 | 0.00 | 0.00 | 0.00 | 41 | 1016.3 |
| 20260902132529 | 25 | 22 | 14.5 | 25.7 | 0.00 | 0.00 | 0.00 | 42 | 1016.3 |
| 20260902131142 | 24 | 16 | 14.5 | 20.9 | 0.00 | 0.00 | 0.00 | 43 | 1016.3 |
| 20260902130529 | 24 | 62 | 9.7 | 19.3 | 0.00 | 0.00 | 0.00 | 46 | 1016.6 |
| 20260902125529 | 24 | 43 | 9.7 | 16.1 | 0.00 | 0.00 | 0.00 | 46 | 1016.6 |
| 20260902124141 | 24 | 14 | 11.3 | 17.7 | 0.00 | 0.00 | 0.00 | 44 | 1016.8 |
| 20260902123529 | 23 | 28 | 14.5 | 24.1 | 0.00 | 0.00 | 0.00 | 43 | 1017.0 |
| 20260902122529 | 24 | 46 | 16.1 | 24.1 | 0.00 | 0.00 | 0.00 | 44 | 1016.9 |
| 20260902121142 | 23 | 55 | 16.1 | 20.9 | 0.00 | 0.00 | 0.00 | 45 | 1017.2 |
| 20260902120528 | 23 | 55 | 12.9 | 20.9 | 0.00 | 0.00 | 0.00 | 46 | 1017.3 |
| 20260902115528 | 23 | 41 | 12.9 | 20.9 | 0.00 | 0.00 | 0.00 | 44 | 1017.5 |
| 20260902114142 | 23 | 31 | 12.9 | 17.7 | 0.00 | 0.00 | 0.00 | 45 | 1017.6 |
| 20260902113529 | 23 | 29 | 16.1 | 22.5 | 0.00 | 0.00 | 0.00 | 47 | 1017.7 |
| 20260902112529 | 23 | 58 | 12.9 | 19.3 | 0.00 | 0.00 | 0.00 | 49 | 1017.9 |
| 20260902111142 | 22 | 89 | 8.0 | 19.3 | 0.00 | 0.00 | 0.00 | 52 | 1018.2 |
| 20260902110529 | 22 | 110 | 4.8 | 9.7 | 0.00 | 0.00 | 0.00 | 54 | 1018.6 |
| 20260902105528 | 21 | 103 | 3.2 | 9.7 | 0.00 | 0.00 | 0.00 | 56 | 1018.8 |
| 20260902104142 | 21 | 85 | 4.8 | 12.9 | 0.00 | 0.00 | 0.00 | 57 | 1019.0 |
| 20260902103529 | 21 | 12 | 1.6 | 6.4 | 0.00 | 0.00 | 0.00 | 59 | 1019.1 |
| 20260902102528 | 20 | 41 | 6.4 | 11.3 | 0.00 | 0.00 | 0.00 | 58 | 1019.7 |
| 20260902101142 | 20 | 143 | 1.6 | 6.4 | 0.00 | 0.00 | 0.00 | 62 | 1019.7 |
| 20260902100529 | 20 | 77 | 3.2 | 8.0 | 0.00 | 0.00 | 0.00 | 62 | 1020.0 |
| 20260902095529 | 20 | 74 | 3.2 | 9.7 | 0.00 | 0.00 | 0.00 | 62 | 1020.1 |
| 20260902094142 | 20 | 183 | 1.6 | 6.4 | 0.00 | 0.00 | 0.00 | 62 | 1020.1 |
| 20260902093529 | 19 | 251 | 3.2 | 8.0 | 0.00 | 0.00 | 0.00 | 65 | 1020.5 |
| 20260902092529 | 19 | 242 | 1.6 | 6.4 | 0.00 | 0.00 | 0.00 | 65 | 1020.7 |
| 20260902091141 | 19 | 221 | 1.6 | 4.8 | 0.00 | 0.00 | 0.00 | 65 | 1020.7 |
| 20260902090529 | 18 | 203 | 3.2 | 6.4 | 0.00 | 0.00 | 0.00 | 67 | 1020.9 |
| 20260902084141 | 17 | 272 | 3.2 | 8.0 | 0.00 | 0.00 | 0.00 | 72 | 1021.4 |
| 20260902083529 | 17 | 258 | 3.2 | 6.4 | 0.00 | 0.00 | 0.00 | 73 | 1021.5 |
| 20260902082531 | 16 | 246 | 4.8 | 9.7 | 0.00 | 0.00 | 0.00 | 75 | 1021.6 |
| 20260902081141 | 16 | 234 | 3.2 | 6.4 | 0.00 | 0.00 | 0.00 | 77 | 1021.7 |
| 20260902080529 | 16 | 183 | 3.2 | 8.0 | 0.00 | 0.00 | 0.00 | 80 | 1021.8 |
| 20260902075529 | 16 | 194 | 4.8 | 9.7 | 0.00 | 0.00 | 0.00 | 82 | 1022.1 |
| 20260902074142 | 15 | 260 | 4.8 | 8.0 | 0.00 | 0.00 | 0.00 | 83 | 1022.2 |